Golden Bay — ZMGB — position and weather

sailwx.info

Track history (hours):
 
Tides and Currents Weather Stations Pressure Air Temp Water Temp Dewpoint Dewpoint Depression Visibility Wind Speed Wind Dir Waves Ship Positions

Golden Bay

Last reported at 2018-Feb-24 15:50 UTC. Time now 2018-Apr-22 02:50 UTC.
Position N 39°60' E 018°40'.
Warning: this ship's position is 56 days out of date.

Length 98 m; .

MMSI: 512041000.

Date/timePositionNaut miles runAvg speedWind from/ knotsBaromVisibWave heightAir tempDewpointWater temp
2018-Feb-24 15:50N 39°60' E 018°40'413.0
2018-Feb-24 15:30N 39°56' E 018°38'612.9
2018-Feb-24 15:00N 39°50' E 018°34'29212.9
2018-Feb-23 16:17N 36°02' E 014°43'412.6
2018-Feb-23 16:00N 35°59' E 014°40'713.1
2018-Feb-23 15:30N 35°56' E 014°33'2 0.1
2018-Feb-22 12:31N 35°54' E 014°32'0 6.7
2018-Feb-22 12:27N 35°54' E 014°32'1 2.5
2018-Feb-22 12:00N 35°55' E 014°33'611.0
2018-Feb-22 11:29N 35°58' E 014°27'4 7.4
2018-Feb-22 11:00N 36°01' E 014°24'0 0.1
2018-Feb-22 10:30N 36°01' E 014°24'0 0.0
2018-Feb-22 09:58N 36°01' E 014°24'0 0.0
2018-Feb-22 09:29N 36°01' E 014°24'0 0.0
2018-Feb-22 09:00N 36°01' E 014°24'0 0.1
2018-Feb-22 08:30N 36°01' E 014°24'0 0.0
2018-Feb-22 08:00N 36°01' E 014°24'0 0.0
2018-Feb-22 07:30N 36°01' E 014°24'0 0.0
2018-Feb-22 06:59N 36°01' E 014°24'0 0.0
2018-Feb-22 06:30N 36°01' E 014°24'0 0.0
2018-Feb-22 06:00N 36°01' E 014°24'0 0.0
2018-Feb-22 05:30N 36°01' E 014°24'0 0.0
2018-Feb-22 05:00N 36°01' E 014°24'0 0.1
2018-Feb-22 04:30N 36°01' E 014°24'0 0.0
2018-Feb-22 04:00N 36°01' E 014°24'0 0.1
2018-Feb-22 03:30N 36°01' E 014°24'0 0.0
2018-Feb-22 03:00N 36°01' E 014°24'0 0.0
2018-Feb-22 02:29N 36°01' E 014°24'0 0.0
2018-Feb-22 02:00N 36°01' E 014°24'0 0.0
2018-Feb-22 01:30N 36°01' E 014°24'0 0.0
2018-Feb-22 00:59N 36°01' E 014°24'0 0.0
2018-Feb-22 00:30N 36°01' E 014°24'0 0.0
2018-Feb-21 23:59N 36°01' E 014°24'0 0.0
2018-Feb-21 23:29N 36°01' E 014°24'0 0.0
2018-Feb-21 23:00N 36°01' E 014°24'0 0.0
2018-Feb-21 22:30N 36°01' E 014°24'0 0.0
2018-Feb-21 22:00N 36°01' E 014°24'0 0.1
2018-Feb-21 21:28N 36°01' E 014°24'3 6.4
2018-Feb-21 21:00N 35°59' E 014°28'5 9.3
2018-Feb-21 20:30N 35°60' E 014°33'4 8.3
2018-Feb-21 20:00N 36°01' E 014°38'5 0.1
2018-Feb-19 21:02N 36°04' E 014°43'111.0
2018-Feb-19 20:55N 36°03' E 014°42'511.2
2018-Feb-19 20:30N 35°59' E 014°38'611.1
2018-Feb-19 20:00N 35°56' E 014°33'  
Track history (hours):
 
Tides and Currents Weather Stations Pressure Air Temp Water Temp Dewpoint Dewpoint Depression Visibility Wind Speed Wind Dir Waves Ship Positions

Golden Bay

Last reported at 2018-Feb-24 15:50 UTC. Time now 2018-Apr-22 02:50 UTC.
Position N 39°60' E 018°40'.
Warning: this ship's position is 56 days out of date.

Length 98 m; .

MMSI: 512041000.

Date/timePositionNaut miles runAvg speedWind from/ knotsBaromVisibWave heightAir tempDewpointWater temp
2018-Feb-24 15:50N 39°60' E 018°40'413.0
2018-Feb-24 15:30N 39°56' E 018°38'612.9
2018-Feb-24 15:00N 39°50' E 018°34'29212.9
2018-Feb-23 16:17N 36°02' E 014°43'412.6
2018-Feb-23 16:00N 35°59' E 014°40'713.1
2018-Feb-23 15:30N 35°56' E 014°33'2 0.1
2018-Feb-22 12:31N 35°54' E 014°32'0 6.7
2018-Feb-22 12:27N 35°54' E 014°32'1 2.5
2018-Feb-22 12:00N 35°55' E 014°33'611.0
2018-Feb-22 11:29N 35°58' E 014°27'4 7.4
2018-Feb-22 11:00N 36°01' E 014°24'0 0.1
2018-Feb-22 10:30N 36°01' E 014°24'0 0.0
2018-Feb-22 09:58N 36°01' E 014°24'0 0.0
2018-Feb-22 09:29N 36°01' E 014°24'0 0.0
2018-Feb-22 09:00N 36°01' E 014°24'0 0.1
2018-Feb-22 08:30N 36°01' E 014°24'0 0.0
2018-Feb-22 08:00N 36°01' E 014°24'0 0.0
2018-Feb-22 07:30N 36°01' E 014°24'0 0.0
2018-Feb-22 06:59N 36°01' E 014°24'0 0.0
2018-Feb-22 06:30N 36°01' E 014°24'0 0.0
2018-Feb-22 06:00N 36°01' E 014°24'0 0.0
2018-Feb-22 05:30N 36°01' E 014°24'0 0.0
2018-Feb-22 05:00N 36°01' E 014°24'0 0.1
2018-Feb-22 04:30N 36°01' E 014°24'0 0.0
2018-Feb-22 04:00N 36°01' E 014°24'0 0.1
2018-Feb-22 03:30N 36°01' E 014°24'0 0.0
2018-Feb-22 03:00N 36°01' E 014°24'0 0.0
2018-Feb-22 02:29N 36°01' E 014°24'0 0.0
2018-Feb-22 02:00N 36°01' E 014°24'0 0.0
2018-Feb-22 01:30N 36°01' E 014°24'0 0.0
2018-Feb-22 00:59N 36°01' E 014°24'0 0.0
2018-Feb-22 00:30N 36°01' E 014°24'0 0.0
2018-Feb-21 23:59N 36°01' E 014°24'0 0.0
2018-Feb-21 23:29N 36°01' E 014°24'0 0.0
2018-Feb-21 23:00N 36°01' E 014°24'0 0.0
2018-Feb-21 22:30N 36°01' E 014°24'0 0.0
2018-Feb-21 22:00N 36°01' E 014°24'0 0.1
2018-Feb-21 21:28N 36°01' E 014°24'3 6.4
2018-Feb-21 21:00N 35°59' E 014°28'5 9.3
2018-Feb-21 20:30N 35°60' E 014°33'4 8.3
2018-Feb-21 20:00N 36°01' E 014°38'5 0.1
2018-Feb-19 21:02N 36°04' E 014°43'111.0
2018-Feb-19 20:55N 36°03' E 014°42'511.2
2018-Feb-19 20:30N 35°59' E 014°38'611.1
2018-Feb-19 20:00N 35°56' E 014°33'  

Dump ship's entire track history